Time;durP1;ratioP1;P1;durP2;ratioP2;P2;SDS_P1;SDS_P2;PMS_P1;PMS_P2;Temp;Humidity;BMP_temperature;BMP_pressure;BME280_temperature;BME280_humidity;BME280_pressure;Samples;Min_cycle;Max_cycle;Signal;HPM_P1;HPM_P2
2022/07/04 00:00:44;;;;;;;6.03;3.17;;;13.30;99.90;;;;;;4847129;29;20517;-33
2022/07/04 00:03:09;;;;;;;4.10;3.40;;;13.30;99.90;;;;;;4847261;29;20049;-33
2022/07/04 00:05:35;;;;;;;5.82;3.33;;;13.20;99.90;;;;;;4824392;29;20064;-34
2022/07/04 00:08:01;;;;;;;4.88;3.13;;;13.20;99.90;;;;;;4836632;29;20129;-33
2022/07/04 00:10:26;;;;;;;5.75;2.67;;;13.20;99.90;;;;;;4858860;29;20128;-33
2022/07/04 00:12:52;;;;;;;7.22;3.22;;;13.20;99.90;;;;;;4855625;29;20114;-33
2022/07/04 00:15:18;;;;;;;4.55;3.10;;;13.30;99.90;;;;;;4846798;29;20046;-33
2022/07/04 00:17:44;;;;;;;7.68;3.20;;;13.20;99.90;;;;;;4825026;29;20046;-33
2022/07/04 00:20:11;;;;;;;7.35;3.33;;;13.20;99.90;;;;;;4857870;29;20135;-33
2022/07/04 00:22:37;;;;;;;7.97;3.20;;;13.20;99.90;;;;;;4854643;29;20065;-33
2022/07/04 00:25:04;;;;;;;5.22;3.00;;;13.20;99.90;;;;;;4858856;29;20466;-33
2022/07/04 00:27:30;;;;;;;5.35;3.10;;;13.20;99.90;;;;;;4843460;29;20767;-33
2022/07/04 00:29:55;;;;;;;4.13;2.95;;;13.20;99.90;;;;;;4859192;29;20049;-33
2022/07/04 00:32:21;;;;;;;5.10;3.05;;;13.20;99.90;;;;;;4855609;29;20073;-33
2022/07/04 00:34:47;;;;;;;4.93;2.88;;;13.20;99.90;;;;;;4845519;29;20061;-33
2022/07/04 00:37:12;;;;;;;8.18;3.03;;;13.20;99.90;;;;;;4838026;29;20102;-34
2022/07/04 00:39:38;;;;;;;4.53;2.65;;;13.10;99.90;;;;;;4858661;29;20081;-33
2022/07/04 00:42:04;;;;;;;6.22;3.20;;;13.10;99.90;;;;;;4857883;29;20523;-34
2022/07/04 00:44:31;;;;;;;8.43;3.17;;;13.10;99.90;;;;;;4855485;29;20622;-33
2022/07/04 00:46:57;;;;;;;7.05;3.50;;;13.10;99.90;;;;;;4841083;29;20536;-33
2022/07/04 00:49:23;;;;;;;6.13;3.30;;;13.10;99.90;;;;;;4857037;29;20140;-33
2022/07/04 00:51:49;;;;;;;6.40;3.20;;;13.10;99.90;;;;;;4848133;29;20490;-33
2022/07/04 00:54:18;;;;;;;7.22;3.33;;;13.00;99.90;;;;;;4853982;29;20049;-33
2022/07/04 00:56:44;;;;;;;8.50;3.40;;;13.00;99.90;;;;;;4832360;29;20038;-33
2022/07/04 00:59:11;;;;;;;7.20;3.13;;;13.00;99.90;;;;;;4856648;29;20580;-33
2022/07/04 01:01:37;;;;;;;8.00;3.40;;;13.00;99.90;;;;;;4846457;29;20054;-33
2022/07/04 01:04:05;;;;;;;7.13;3.22;;;13.00;99.90;;;;;;4837864;29;20466;-33
2022/07/04 01:06:31;;;;;;;4.38;3.40;;;13.00;99.90;;;;;;4842032;29;20124;-34
2022/07/04 01:08:57;;;;;;;6.85;3.75;;;13.00;99.90;;;;;;4849422;29;20053;-33
2022/07/04 01:11:23;;;;;;;6.28;3.60;;;12.90;99.90;;;;;;4841484;29;20065;-33
2022/07/04 01:13:48;;;;;;;7.50;4.00;;;12.90;99.90;;;;;;4850979;29;20092;-33
2022/07/04 01:16:14;;;;;;;6.40;3.53;;;12.90;99.90;;;;;;4839880;29;20133;-33
2022/07/04 01:18:41;;;;;;;4.20;3.45;;;12.90;99.90;;;;;;4847538;29;20111;-33
2022/07/04 01:21:07;;;;;;;5.85;3.78;;;12.80;99.90;;;;;;4852569;29;20041;-33
2022/07/04 01:23:37;;;;;;;7.35;4.18;;;12.80;99.90;;;;;;4857290;29;20046;-33
2022/07/04 01:26:03;;;;;;;5.07;3.57;;;12.80;99.90;;;;;;4857878;29;20174;-33
2022/07/04 01:28:29;;;;;;;5.65;3.97;;;12.80;99.90;;;;;;4838454;29;20144;-33
2022/07/04 01:30:54;;;;;;;7.07;3.95;;;12.80;99.90;;;;;;4841266;29;20501;-33
2022/07/04 01:33:20;;;;;;;6.25;3.97;;;12.70;99.90;;;;;;4848930;29;20081;-33
2022/07/04 01:35:47;;;;;;;4.85;3.80;;;12.70;99.90;;;;;;4848641;29;20049;-33
2022/07/04 01:38:13;;;;;;;5.65;3.95;;;12.70;99.90;;;;;;4842339;29;20041;-32
2022/07/04 01:40:39;;;;;;;5.82;4.38;;;12.70;99.90;;;;;;4836996;29;20057;-33
2022/07/04 01:43:05;;;;;;;6.32;3.90;;;12.70;99.90;;;;;;4840391;29;20049;-33
2022/07/04 01:45:34;;;;;;;5.80;3.95;;;12.60;99.90;;;;;;4857286;29;20068;-33
2022/07/04 01:48:00;;;;;;;8.25;4.22;;;12.60;99.90;;;;;;4829041;29;20058;-33
2022/07/04 01:50:26;;;;;;;5.18;4.10;;;12.50;99.90;;;;;;4842989;29;20104;-32
2022/07/04 01:52:52;;;;;;;6.50;4.00;;;12.70;99.90;;;;;;4857292;29;20049;-33
2022/07/04 01:55:18;;;;;;;5.68;3.95;;;12.50;99.90;;;;;;4853773;29;20064;-32
2022/07/04 01:57:43;;;;;;;5.32;4.10;;;12.50;99.90;;;;;;4813590;29;20517;-32
2022/07/04 02:02:57;;;;;;;9.48;4.15;;;12.40;99.90;;;;;;4856899;29;20064;-32
2022/07/04 02:05:24;;;;;;;9.18;4.07;;;12.40;99.90;;;;;;4857479;29;20049;-32
2022/07/04 02:07:50;;;;;;;5.57;4.00;;;12.40;99.90;;;;;;4841687;29;20057;-32
2022/07/04 02:10:15;;;;;;;6.82;4.00;;;12.40;99.90;;;;;;4849592;29;20137;-33
2022/07/04 02:15:26;;;;;;;7.88;4.43;;;12.40;99.90;;;;;;4853781;29;20611;-33
2022/07/04 02:17:51;;;;;;;5.95;4.30;;;12.30;99.90;;;;;;4823023;29;20148;-33
2022/07/04 02:20:17;;;;;;;6.88;4.10;;;12.30;99.90;;;;;;4839836;29;20046;-32
2022/07/04 02:22:43;;;;;;;5.65;4.07;;;12.30;99.90;;;;;;4852478;29;20058;-32
2022/07/04 02:25:11;;;;;;;7.53;4.38;;;12.30;99.90;;;;;;4854000;29;20045;-33
2022/07/04 02:27:37;;;;;;;7.60;4.32;;;12.30;99.90;;;;;;4841481;29;20046;-32
2022/07/04 02:30:03;;;;;;;4.72;3.92;;;12.30;99.90;;;;;;4840545;29;20057;-32
2022/07/04 02:32:29;;;;;;;7.20;4.55;;;12.30;99.90;;;;;;4851574;29;20045;-32
2022/07/04 02:34:54;;;;;;;10.73;5.00;;;12.30;99.90;;;;;;4841366;29;20496;-33
2022/07/04 02:37:20;;;;;;;7.78;4.72;;;12.30;99.90;;;;;;4841168;29;20076;-32
2022/07/04 02:39:45;;;;;;;7.53;5.13;;;12.30;99.90;;;;;;4845563;29;20053;-32
2022/07/04 02:42:11;;;;;;;7.60;5.18;;;12.20;99.90;;;;;;4855601;29;20066;-32
2022/07/04 02:44:37;;;;;;;8.20;4.85;;;12.20;99.90;;;;;;4849888;29;20049;-32
2022/07/04 02:47:02;;;;;;;7.15;4.65;;;12.20;99.90;;;;;;4845955;29;20056;-32
2022/07/04 02:49:28;;;;;;;7.75;4.53;;;12.20;99.90;;;;;;4859250;29;20045;-32
2022/07/04 02:51:54;;;;;;;5.95;4.75;;;12.20;99.90;;;;;;4860974;29;20057;-32
2022/07/04 02:54:19;;;;;;;7.03;5.15;;;12.20;99.90;;;;;;4856909;29;20057;-33
2022/07/04 02:56:45;;;;;;;7.63;5.50;;;12.20;99.90;;;;;;4842019;29;20107;-32
2022/07/04 02:59:11;;;;;;;9.75;5.05;;;12.20;99.90;;;;;;4842511;29;20050;-32
2022/07/04 03:01:37;;;;;;;7.95;5.50;;;12.20;99.90;;;;;;4848638;29;20518;-33
2022/07/04 03:04:03;;;;;;;8.57;5.53;;;12.20;99.90;;;;;;4846307;29;20057;-32
2022/07/04 03:06:29;;;;;;;7.68;5.53;;;12.20;99.90;;;;;;4842837;29;20060;-34
2022/07/04 03:08:55;;;;;;;7.95;5.45;;;12.20;99.90;;;;;;4856411;29;20140;-32
2022/07/04 03:11:21;;;;;;;9.20;5.57;;;12.20;99.90;;;;;;4847714;29;20141;-33
2022/07/04 03:13:47;;;;;;;9.93;5.55;;;12.30;99.90;;;;;;4841133;29;20054;-32
2022/07/04 03:16:12;;;;;;;7.57;5.60;;;12.00;99.90;;;;;;4850511;29;20072;-33
2022/07/04 03:18:38;;;;;;;9.15;5.70;;;12.20;99.90;;;;;;4837021;29;20050;-32
2022/07/04 03:21:04;;;;;;;9.68;6.15;;;12.10;99.90;;;;;;4860343;29;20049;-32
2022/07/04 03:23:31;;;;;;;9.45;5.68;;;12.10;99.90;;;;;;4857804;29;20057;-32
2022/07/04 03:25:57;;;;;;;8.25;6.35;;;12.20;99.90;;;;;;4856240;29;20117;-33
2022/07/04 03:28:23;;;;;;;7.47;5.97;;;12.20;99.90;;;;;;4837179;29;20054;-32
2022/07/04 03:30:49;;;;;;;7.93;6.25;;;12.20;99.90;;;;;;4842839;29;20516;-32
2022/07/04 03:33:14;;;;;;;11.15;6.40;;;12.10;99.90;;;;;;4839576;29;20082;-32
2022/07/04 03:35:40;;;;;;;9.00;6.28;;;12.20;99.90;;;;;;4853031;29;20508;-32
2022/07/04 03:38:06;;;;;;;10.57;6.32;;;12.20;99.90;;;;;;4840880;29;20049;-33
2022/07/04 03:40:32;;;;;;;10.43;6.82;;;12.20;99.90;;;;;;4855922;29;20038;-33
2022/07/04 03:42:58;;;;;;;10.68;6.28;;;12.20;99.90;;;;;;4859298;29;20105;-32
2022/07/04 03:45:24;;;;;;;10.32;7.13;;;12.20;99.90;;;;;;4856736;29;20056;-33
2022/07/04 03:47:50;;;;;;;11.10;6.80;;;12.20;99.90;;;;;;4840699;29;20053;-32
2022/07/04 03:50:17;;;;;;;12.13;6.70;;;12.20;99.90;;;;;;4842735;29;20137;-33
2022/07/04 03:52:42;;;;;;;8.38;6.60;;;12.20;99.90;;;;;;4830655;29;20053;-32
2022/07/04 03:55:09;;;;;;;9.43;7.10;;;12.20;99.90;;;;;;4858989;29;20053;-32
2022/07/04 03:57:34;;;;;;;12.32;7.75;;;12.20;99.90;;;;;;4843849;29;20093;-33
2022/07/04 04:00:00;;;;;;;10.30;7.20;;;12.20;99.90;;;;;;4855959;29;20065;-32
2022/07/04 04:02:26;;;;;;;12.73;7.95;;;12.30;99.90;;;;;;4840393;29;20050;-32
2022/07/04 04:07:36;;;;;;;13.98;8.10;;;12.30;99.90;;;;;;4833313;29;20076;-33
2022/07/04 04:10:02;;;;;;;12.48;8.60;;;12.30;99.90;;;;;;4855613;29;20489;-32
2022/07/04 04:12:28;;;;;;;13.15;8.75;;;12.30;99.90;;;;;;4858930;29;20042;-33
2022/07/04 04:14:55;;;;;;;11.73;9.30;;;12.30;99.90;;;;;;4862137;29;20150;-32
2022/07/04 04:17:20;;;;;;;14.23;8.95;;;12.40;99.90;;;;;;4834806;29;20459;-33
2022/07/04 04:19:46;;;;;;;15.30;9.63;;;12.30;99.90;;;;;;4843578;29;20060;-32
2022/07/04 04:22:12;;;;;;;16.08;10.38;;;12.40;99.90;;;;;;4857853;29;20061;-33
2022/07/04 04:24:38;;;;;;;14.52;10.45;;;12.40;99.90;;;;;;4854787;29;20053;-32
2022/07/04 04:27:04;;;;;;;17.50;10.23;;;12.50;99.90;;;;;;4844187;29;20665;-33
2022/07/04 04:29:29;;;;;;;15.75;9.63;;;12.50;99.90;;;;;;4845584;29;20057;-33
2022/07/04 04:31:55;;;;;;;12.80;9.80;;;12.60;99.90;;;;;;4855410;29;20050;-32
2022/07/04 04:34:20;;;;;;;15.70;10.30;;;12.60;99.90;;;;;;4839300;29;20050;-33
2022/07/04 04:36:46;;;;;;;14.60;9.93;;;12.70;99.90;;;;;;4841617;29;20485;-33
2022/07/04 04:39:13;;;;;;;13.73;10.05;;;12.70;99.90;;;;;;4842924;29;20095;-33
2022/07/04 04:41:39;;;;;;;13.43;9.30;;;12.80;99.90;;;;;;4841624;29;20129;-32
2022/07/04 04:44:05;;;;;;;10.75;8.73;;;12.80;99.90;;;;;;4851059;29;20133;-32
2022/07/04 04:46:31;;;;;;;13.15;8.32;;;12.90;99.90;;;;;;4819486;29;20630;-33
2022/07/04 04:48:56;;;;;;;11.98;8.50;;;12.90;99.90;;;;;;4855256;29;20061;-32
2022/07/04 04:51:22;;;;;;;14.15;8.27;;;13.00;99.90;;;;;;4851328;29;20057;-33
2022/07/04 04:53:48;;;;;;;13.20;7.85;;;13.00;99.90;;;;;;4841875;29;20413;-32
2022/07/04 04:56:14;;;;;;;13.63;7.47;;;13.10;99.90;;;;;;4848716;29;20132;-33
2022/07/04 04:58:39;;;;;;;11.98;6.93;;;13.10;99.90;;;;;;4850177;29;20049;-33
2022/07/04 05:01:05;;;;;;;10.00;7.30;;;13.20;99.90;;;;;;4840361;29;20050;-33
2022/07/04 05:03:31;;;;;;;10.00;6.45;;;13.30;99.90;;;;;;4842534;29;20558;-33
2022/07/04 05:05:57;;;;;;;10.10;6.97;;;13.40;99.90;;;;;;4849693;29;20125;-33
2022/07/04 05:08:25;;;;;;;10.82;6.85;;;13.50;99.90;;;;;;4835567;29;20432;-33
2022/07/04 05:10:51;;;;;;;10.52;6.53;;;13.60;99.90;;;;;;4852169;29;20049;-33
2022/07/04 05:13:17;;;;;;;11.18;6.68;;;13.60;99.90;;;;;;4857816;29;20109;-33
2022/07/04 05:15:42;;;;;;;14.30;6.70;;;13.70;99.90;;;;;;4849542;29;20050;-33
2022/07/04 05:18:08;;;;;;;10.60;6.03;;;13.70;99.90;;;;;;4838443;29;20465;-33
2022/07/04 05:20:33;;;;;;;8.18;5.72;;;13.70;99.90;;;;;;4857871;29;20053;-33
2022/07/04 05:22:59;;;;;;;11.38;6.40;;;13.80;99.90;;;;;;4844836;29;20057;-33
2022/07/04 05:25:25;;;;;;;9.27;5.72;;;13.80;99.90;;;;;;4851031;29;20050;-33
2022/07/04 05:27:51;;;;;;;11.07;5.82;;;13.90;99.90;;;;;;4828988;29;20147;-32
2022/07/04 05:30:17;;;;;;;11.07;5.63;;;14.00;99.90;;;;;;4857853;29;20196;-33
2022/07/04 05:32:42;;;;;;;13.40;5.93;;;14.10;99.90;;;;;;4857346;29;20548;-33
2022/07/04 05:35:09;;;;;;;13.73;5.90;;;14.20;99.90;;;;;;4853488;29;20146;-32
2022/07/04 05:37:37;;;;;;;9.45;5.72;;;14.20;99.90;;;;;;4821517;29;20073;-33
2022/07/04 05:40:03;;;;;;;9.20;5.82;;;14.30;99.90;;;;;;4845688;29;20050;-33
2022/07/04 05:42:29;;;;;;;9.18;5.65;;;14.40;99.90;;;;;;4844607;29;20136;-33
2022/07/04 05:44:55;;;;;;;9.07;4.72;;;14.50;99.90;;;;;;4852569;29;20128;-32
2022/07/04 05:47:24;;;;;;;9.27;5.80;;;14.60;99.90;;;;;;4835533;29;20068;-33
2022/07/04 05:49:51;;;;;;;9.95;6.03;;;14.70;99.90;;;;;;4834349;29;20509;-33
2022/07/04 05:52:16;;;;;;;9.32;6.00;;;14.80;99.90;;;;;;4849850;29;20409;-33
2022/07/04 05:54:42;;;;;;;8.68;5.40;;;14.70;99.90;;;;;;4852472;29;20056;-33
2022/07/04 05:57:08;;;;;;;8.95;5.63;;;14.80;99.90;;;;;;4830153;29;20618;-33
2022/07/04 05:59:33;;;;;;;8.07;5.40;;;14.90;99.90;;;;;;4838071;29;20758;-33
2022/07/04 06:01:59;;;;;;;10.27;5.95;;;14.90;99.90;;;;;;4844918;29;20097;-33
2022/07/04 06:04:25;;;;;;;8.57;5.20;;;15.00;99.90;;;;;;4856736;29;20056;-33
2022/07/04 06:06:51;;;;;;;10.52;5.75;;;15.10;99.90;;;;;;4842256;29;20101;-34
2022/07/04 06:09:17;;;;;;;8.10;4.85;;;15.20;99.90;;;;;;4853903;29;20081;-33
2022/07/04 06:11:42;;;;;;;9.38;5.22;;;15.30;99.90;;;;;;4857360;29;20053;-33
2022/07/04 06:14:08;;;;;;;10.95;5.30;;;15.40;99.90;;;;;;4856402;29;20057;-33
2022/07/04 06:16:34;;;;;;;9.27;4.65;;;15.50;99.90;;;;;;4831850;29;20053;-33
2022/07/04 06:18:59;;;;;;;11.50;4.97;;;15.60;99.90;;;;;;4838394;29;20417;-33
2022/07/04 06:21:25;;;;;;;11.73;4.82;;;15.70;99.90;;;;;;4854474;29;20409;-33
2022/07/04 06:23:51;;;;;;;7.88;4.38;;;15.80;99.90;;;;;;4856373;29;20426;-34
2022/07/04 06:26:16;;;;;;;11.48;4.75;;;16.00;99.90;;;;;;4847022;29;20068;-34
2022/07/04 06:28:42;;;;;;;9.90;4.03;;;16.10;99.90;;;;;;4851549;29;20077;-34
2022/07/04 06:31:08;;;;;;;7.85;3.78;;;16.20;99.90;;;;;;4837462;29;20065;-34
2022/07/04 06:35:44;;;;;;;10.02;4.00;;;16.30;99.90;;;;;;4846954;29;20513;-34
2022/07/04 06:36:19;;;;;;;6.97;3.95;;;16.40;99.90;;;;;;4839614;29;20064;-34
2022/07/04 06:38:45;;;;;;;8.20;3.25;;;16.50;99.90;;;;;;4834295;29;20057;-34
2022/07/04 06:41:11;;;;;;;8.55;3.92;;;16.60;99.90;;;;;;4834346;29;20092;-34
2022/07/04 06:43:36;;;;;;;9.77;4.07;;;16.60;99.90;;;;;;4855160;29;20073;-34
2022/07/04 06:46:02;;;;;;;6.82;3.53;;;16.80;99.90;;;;;;4854046;29;20046;-34
2022/07/04 06:48:29;;;;;;;10.00;3.80;;;16.80;99.90;;;;;;4839661;29;20057;-34
2022/07/04 06:50:55;;;;;;;8.98;3.70;;;16.90;99.90;;;;;;4855651;29;20068;-34
2022/07/04 06:53:20;;;;;;;11.13;3.67;;;17.00;99.90;;;;;;4853265;29;20421;-34
2022/07/04 06:55:46;;;;;;;8.95;3.65;;;17.10;99.90;;;;;;4855943;29;20037;-34
2022/07/04 06:58:12;;;;;;;7.18;3.70;;;17.10;99.90;;;;;;4839283;29;20060;-34
2022/07/04 07:00:38;;;;;;;7.15;3.30;;;17.20;99.90;;;;;;4854373;29;20046;-34
2022/07/04 07:03:04;;;;;;;11.38;3.50;;;17.30;99.90;;;;;;4852126;29;20425;-34
2022/07/04 07:05:31;;;;;;;8.00;3.30;;;17.40;99.90;;;;;;4855831;29;20041;-34
2022/07/04 07:07:56;;;;;;;8.82;3.20;;;17.50;99.90;;;;;;4821279;29;20454;-34
2022/07/04 07:10:22;;;;;;;6.28;2.67;;;17.60;99.90;;;;;;4851718;29;20102;-34
2022/07/04 07:12:48;;;;;;;6.50;3.33;;;17.60;99.90;;;;;;4851789;29;20140;-34
2022/07/04 07:15:14;;;;;;;5.95;3.33;;;17.60;99.90;;;;;;4857046;29;20083;-34
2022/07/04 07:17:40;;;;;;;8.95;2.85;;;17.70;99.90;;;;;;4835349;29;20053;-34
2022/07/04 07:20:07;;;;;;;6.97;3.20;;;17.70;99.90;;;;;;4854898;29;20581;-34
2022/07/04 07:22:33;;;;;;;7.32;3.25;;;17.70;99.90;;;;;;4843256;29;20132;-34
2022/07/04 07:24:58;;;;;;;9.13;3.20;;;17.80;99.90;;;;;;4851212;29;20148;-34
2022/07/04 07:27:24;;;;;;;7.72;2.90;;;17.80;99.90;;;;;;4838123;29;20057;-34
2022/07/04 07:29:50;;;;;;;7.43;3.17;;;17.80;99.90;;;;;;4855827;29;20056;-33
2022/07/04 07:32:17;;;;;;;11.50;3.10;;;17.80;99.90;;;;;;4856102;29;20128;-34
2022/07/04 07:34:43;;;;;;;11.23;3.47;;;17.80;99.90;;;;;;4854057;29;20404;-33
2022/07/04 07:37:08;;;;;;;7.40;2.58;;;17.80;99.90;;;;;;4842055;29;20049;-33
2022/07/04 07:39:34;;;;;;;8.15;3.00;;;17.80;99.90;;;;;;4853367;29;20049;-33
2022/07/04 07:41:59;;;;;;;7.38;2.58;;;17.80;99.90;;;;;;4834015;29;20068;-34
2022/07/04 07:44:25;;;;;;;8.23;2.63;;;17.80;99.90;;;;;;4829993;29;20125;-33
2022/07/04 07:46:51;;;;;;;8.88;2.53;;;17.80;99.90;;;;;;4818597;29;20055;-33
2022/07/04 07:49:17;;;;;;;6.53;2.80;;;17.80;99.90;;;;;;4833776;29;20070;-34
2022/07/04 07:51:43;;;;;;;8.13;2.42;;;17.70;99.90;;;;;;4840844;29;20065;-33
2022/07/04 07:54:08;;;;;;;7.05;1.98;;;17.70;99.90;;;;;;4839917;29;20125;-33
2022/07/04 07:56:34;;;;;;;7.18;2.22;;;17.70;99.90;;;;;;4813807;29;20476;-34
2022/07/04 07:59:00;;;;;;;10.25;2.20;;;17.70;99.90;;;;;;4834362;29;20421;-34
2022/07/04 08:01:25;;;;;;;6.00;2.10;;;17.70;99.90;;;;;;4831077;29;20414;-34
2022/07/04 08:06:36;;;;;;;3.67;1.77;;;17.70;99.90;;;;;;4824642;29;20118;-34
2022/07/04 08:09:02;;;;;;;5.10;1.85;;;17.70;99.90;;;;;;4836852;29;20056;-33
2022/07/04 08:11:27;;;;;;;6.80;2.20;;;17.80;99.90;;;;;;4839407;29;20081;-33
2022/07/04 08:13:53;;;;;;;4.22;1.85;;;17.80;99.90;;;;;;4839171;29;20154;-33
2022/07/04 08:16:19;;;;;;;5.75;1.45;;;17.90;99.90;;;;;;4830466;29;20058;-33
2022/07/04 08:18:45;;;;;;;4.00;1.00;;;18.00;99.90;;;;;;4831841;29;20502;-33
2022/07/04 08:21:10;;;;;;;5.07;0.77;;;18.00;99.90;;;;;;4839800;29;20046;-33
2022/07/04 08:23:36;;;;;;;3.10;0.55;;;18.00;99.90;;;;;;4835329;29;20046;-33
2022/07/04 08:26:03;;;;;;;3.38;0.60;;;18.10;99.90;;;;;;4838875;29;20060;-33
2022/07/04 08:28:29;;;;;;;2.85;0.73;;;18.10;99.90;;;;;;4819120;29;20134;-34
2022/07/04 08:30:56;;;;;;;2.45;0.80;;;18.20;99.90;;;;;;4836293;29;20603;-33
2022/07/04 08:33:22;;;;;;;2.78;0.63;;;18.20;99.90;;;;;;4836338;29;20046;-33
2022/07/04 08:35:48;;;;;;;2.70;0.80;;;18.30;99.90;;;;;;4834975;29;20050;-33
2022/07/04 08:38:15;;;;;;;5.35;0.75;;;18.30;99.90;;;;;;4822608;29;20494;-33
2022/07/04 08:40:41;;;;;;;2.95;0.57;;;18.30;99.90;;;;;;4838714;29;20154;-33
2022/07/04 08:43:08;;;;;;;2.53;0.80;;;18.30;99.90;;;;;;4835194;29;20447;-33
2022/07/04 08:45:34;;;;;;;3.72;0.95;;;18.40;99.90;;;;;;4834772;29;20129;-33
2022/07/04 08:48:02;;;;;;;4.80;0.70;;;18.40;99.90;;;;;;4820037;29;20157;-34
2022/07/04 08:50:33;;;;;;;2.58;0.80;;;18.50;99.90;;;;;;4853946;29;20058;-33
2022/07/04 08:53:01;;;;;;;3.15;0.55;;;18.50;99.90;;;;;;4836090;29;20062;-33
2022/07/04 08:58:31;;;;;;;1.60;0.68;;;18.70;99.90;;;;;;4842533;29;20049;-33
2022/07/04 09:01:01;;;;;;;1.77;0.60;;;18.70;99.90;;;;;;4855819;29;20876;-33
2022/07/04 09:03:28;;;;;;;5.30;0.70;;;18.80;99.90;;;;;;4856891;29;20052;-33
2022/07/04 09:05:55;;;;;;;3.90;0.73;;;18.90;99.90;;;;;;4858772;29;20173;-34
2022/07/04 09:08:22;;;;;;;1.88;0.40;;;19.00;99.90;;;;;;4823181;29;20082;-33
2022/07/04 09:10:51;;;;;;;2.50;0.68;;;19.10;99.90;;;;;;4850982;29;20563;-33
2022/07/04 09:13:18;;;;;;;2.70;0.47;;;19.20;99.90;;;;;;4844943;29;20076;-33
2022/07/04 09:15:53;;;;;;;2.42;0.43;;;19.20;99.90;;;;;;4852446;29;20130;-33
2022/07/04 09:18:26;;;;;;;2.58;0.57;;;19.20;99.90;;;;;;4823862;29;20085;-33
2022/07/04 09:20:58;;;;;;;6.38;0.50;;;19.30;99.90;;;;;;4839706;29;20057;-33
2022/07/04 09:23:27;;;;;;;1.65;0.60;;;19.30;99.90;;;;;;4847095;29;20072;-33
2022/07/04 09:26:20;;;;;;;1.67;0.55;;;19.30;99.90;;;;;;4841255;29;20053;-33
2022/07/04 09:28:56;;;;;;;4.60;0.80;;;19.40;99.90;;;;;;4837620;29;20544;-33
2022/07/04 09:31:27;;;;;;;2.42;0.50;;;19.40;99.90;;;;;;4852953;29;20042;-33
2022/07/04 09:33:57;;;;;;;1.40;0.47;;;19.50;99.90;;;;;;4845114;29;20081;-33
2022/07/04 09:36:34;;;;;;;3.33;0.68;;;19.50;99.90;;;;;;4838104;29;20132;-34
2022/07/04 09:39:20;;;;;;;2.42;0.52;;;19.50;99.90;;;;;;4804502;29;20057;-33
2022/07/04 09:41:58;;;;;;;2.75;0.50;;;19.50;99.90;;;;;;4827440;29;20058;-33
2022/07/04 09:44:42;;;;;;;3.28;0.70;;;19.50;99.90;;;;;;4841050;29;20045;-33
2022/07/04 09:47:24;;;;;;;2.08;0.65;;;19.40;99.90;;;;;;4825695;29;20126;-34
2022/07/04 09:50:29;;;;;;;2.50;0.50;;;19.30;99.90;;;;;;4851938;29;20200;-33
2022/07/04 09:53:02;;;;;;;1.48;0.60;;;19.30;99.90;;;;;;4824965;29;20054;-33
2022/07/04 09:55:39;;;;;;;2.63;0.60;;;19.30;99.90;;;;;;4843585;29;20096;-33
2022/07/04 09:58:07;;;;;;;1.80;0.65;;;19.30;99.90;;;;;;4834960;29;20054;-34
2022/07/04 10:00:35;;;;;;;2.22;0.65;;;19.20;99.90;;;;;;4845297;29;20046;-34
2022/07/04 10:03:25;;;;;;;3.30;0.63;;;19.20;99.90;;;;;;4845804;29;20059;-34
2022/07/04 10:06:03;;;;;;;1.88;0.70;;;19.10;99.90;;;;;;4846650;29;20062;-34
2022/07/04 10:08:29;;;;;;;2.00;0.40;;;19.10;99.90;;;;;;4826328;29;20841;-33
2022/07/04 10:10:59;;;;;;;2.67;0.68;;;19.10;99.90;;;;;;4827883;29;20054;-33
2022/07/04 10:13:25;;;;;;;3.30;0.73;;;19.10;99.90;;;;;;4846047;29;20413;-34
2022/07/04 10:15:51;;;;;;;7.72;0.90;;;19.10;99.90;;;;;;4825827;29;20057;-33
2022/07/04 10:18:21;;;;;;;3.30;0.70;;;19.30;99.90;;;;;;4829909;29;20126;-33
2022/07/04 10:20:49;;;;;;;5.93;1.08;;;19.30;99.90;;;;;;4845009;29;20133;-34
2022/07/04 10:23:15;;;;;;;2.40;0.70;;;19.30;99.90;;;;;;4842873;29;20073;-33
2022/07/04 10:25:42;;;;;;;5.38;0.98;;;19.30;99.90;;;;;;4843908;29;20436;-33
2022/07/04 10:28:08;;;;;;;3.10;0.63;;;19.20;99.90;;;;;;4811219;29;20120;-34
2022/07/04 10:30:38;;;;;;;2.75;0.70;;;19.20;99.90;;;;;;4850934;29;20258;-33
2022/07/04 10:33:07;;;;;;;3.42;0.65;;;19.20;99.90;;;;;;4851157;29;20532;-33
2022/07/04 10:35:51;;;;;;;3.40;0.70;;;19.20;99.90;;;;;;4848602;29;20506;-34
2022/07/04 10:38:18;;;;;;;6.93;0.95;;;19.10;99.90;;;;;;4827675;29;20069;-34
2022/07/04 10:40:53;;;;;;;5.95;1.38;;;19.10;99.90;;;;;;4845347;29;20404;-33
2022/07/04 10:43:33;;;;;;;1.77;0.98;;;19.10;99.90;;;;;;4846425;29;20136;-33
2022/07/04 10:46:02;;;;;;;2.35;0.88;;;19.10;99.90;;;;;;4849150;29;20061;-33
2022/07/04 10:48:29;;;;;;;3.20;0.52;;;19.30;99.90;;;;;;4831421;29;20078;-33
2022/07/04 10:51:02;;;;;;;2.97;0.47;;;19.40;99.90;;;;;;4832095;29;20445;-34
2022/07/04 10:53:29;;;;;;;2.63;0.47;;;19.50;99.90;;;;;;4851055;29;20395;-33
2022/07/04 10:56:15;;;;;;;2.22;0.52;;;19.50;99.90;;;;;;4848068;29;20498;-33
2022/07/04 10:58:42;;;;;;;2.65;0.82;;;19.60;99.90;;;;;;4843200;29;20074;-33
2022/07/04 11:01:15;;;;;;;2.25;0.50;;;19.60;99.90;;;;;;4834991;29;20061;-33
2022/07/04 11:03:48;;;;;;;3.90;0.60;;;19.70;99.90;;;;;;4849920;29;20504;-33
2022/07/04 11:06:46;;;;;;;1.98;0.52;;;19.70;99.90;;;;;;4845339;29;20091;-34
2022/07/04 11:09:20;;;;;;;1.65;0.40;;;19.70;99.90;;;;;;4825438;29;20081;-33
2022/07/04 11:12:06;;;;;;;2.25;0.40;;;19.70;99.90;;;;;;4853578;29;20053;-33
2022/07/04 11:14:40;;;;;;;2.47;0.40;;;19.70;99.90;;;;;;4856517;29;20049;-33
2022/07/04 11:17:10;;;;;;;3.55;0.40;;;19.80;99.90;;;;;;4838475;29;20061;-34
2022/07/04 11:19:36;;;;;;;2.15;0.40;;;19.90;99.90;;;;;;4854922;29;20393;-34
2022/07/04 11:22:05;;;;;;;3.15;0.30;;;20.00;99.90;;;;;;4853800;29;20509;-33
2022/07/04 11:24:31;;;;;;;1.75;0.30;;;20.10;99.90;;;;;;4851321;29;20066;-33
2022/07/04 11:26:57;;;;;;;1.55;0.40;;;20.20;99.90;;;;;;4837839;29;20050;-34
2022/07/04 11:29:23;;;;;;;2.05;0.45;;;20.20;99.90;;;;;;4850681;29;20041;-34
2022/07/04 11:31:51;;;;;;;0.80;0.30;;;20.30;99.90;;;;;;4853097;29;20045;-33
2022/07/04 11:34:17;;;;;;;3.22;0.40;;;20.30;99.90;;;;;;4850315;29;20049;-33
2022/07/04 11:36:45;;;;;;;0.98;0.43;;;20.30;99.90;;;;;;4835741;29;20056;-34
2022/07/04 11:39:19;;;;;;;3.58;0.40;;;20.40;99.90;;;;;;4851784;29;20081;-33
2022/07/04 11:47:44;;;;;;;1.83;0.50;;;20.40;99.90;;;;;;4839358;29;20642;-34
2022/07/04 11:50:11;;;;;;;2.80;0.30;;;20.50;99.90;;;;;;4852812;29;20628;-33
2022/07/04 11:52:37;;;;;;;1.77;0.45;;;20.50;99.90;;;;;;4851360;29;20060;-33
2022/07/04 11:55:08;;;;;;;0.73;0.47;;;20.50;99.90;;;;;;4845839;29;20050;-33
2022/07/04 11:57:42;;;;;;;2.97;0.40;;;20.50;99.90;;;;;;4833367;29;20113;-34
2022/07/04 12:00:13;;;;;;;3.28;0.57;;;20.60;99.90;;;;;;4849558;29;20061;-33
2022/07/04 12:02:41;;;;;;;1.08;0.25;;;20.80;99.90;;;;;;4843651;29;20060;-33
2022/07/04 12:05:09;;;;;;;1.17;0.35;;;20.70;99.90;;;;;;4847928;29;20050;-33
2022/07/04 12:07:40;;;;;;;1.23;0.30;;;20.60;99.90;;;;;;4833775;29;20121;-33
2022/07/04 12:10:32;;;;;;;2.28;0.20;;;20.60;99.90;;;;;;4845265;29;20189;-33
2022/07/04 12:13:09;;;;;;;1.20;0.20;;;20.70;99.90;;;;;;4841814;29;20704;-33
2022/07/04 12:15:48;;;;;;;1.90;0.45;;;20.70;99.90;;;;;;4850495;29;20065;-33
2022/07/04 12:18:20;;;;;;;1.20;0.38;;;20.70;99.90;;;;;;4825811;29;20172;-33
2022/07/04 12:20:46;;;;;;;;;;;20.80;99.90;;;;;;4850454;29;20064;-33
2022/07/04 12:23:11;;;;;;;2.53;0.65;;;20.90;99.90;;;;;;4846107;29;20296;-33
2022/07/04 12:25:39;;;;;;;3.78;0.40;;;21.00;99.90;;;;;;4811436;29;20053;-33
2022/07/04 12:28:09;;;;;;;3.03;0.55;;;21.00;99.90;;;;;;4830398;29;20054;-33
2022/07/04 12:30:39;;;;;;;2.15;0.45;;;21.10;99.90;;;;;;4851103;29;20451;-33
2022/07/04 12:33:08;;;;;;;2.83;0.45;;;21.10;99.90;;;;;;4850807;29;20409;-33
2022/07/04 12:35:47;;;;;;;2.33;0.60;;;21.10;99.90;;;;;;4853656;29;20497;-33
2022/07/04 12:38:22;;;;;;;2.60;0.70;;;21.20;99.90;;;;;;4832269;29;20050;-33
2022/07/04 12:41:02;;;;;;;3.00;0.47;;;21.30;99.90;;;;;;4848958;29;20065;-33
2022/07/04 12:43:40;;;;;;;2.87;0.50;;;21.30;99.90;;;;;;4848829;29;20541;-33
2022/07/04 12:46:08;;;;;;;2.97;0.40;;;21.30;99.90;;;;;;4850694;29;20105;-34
2022/07/04 12:48:34;;;;;;;3.38;0.38;;;21.30;99.90;;;;;;4841882;29;20086;-33
2022/07/04 12:51:30;;;;;;;2.55;0.30;;;21.30;99.90;;;;;;4854647;29;20112;-33
2022/07/04 12:53:57;;;;;;;1.70;0.20;;;21.30;99.90;;;;;;4840361;29;20049;-33
2022/07/04 12:56:32;;;;;;;3.17;0.47;;;21.40;99.90;;;;;;4833299;29;20382;-33
2022/07/04 12:59:01;;;;;;;0.95;0.20;;;21.30;98.90;;;;;;4851572;29;20058;-33
2022/07/04 13:01:27;;;;;;;0.80;0.20;;;21.40;99.80;;;;;;4849337;29;20081;-34
2022/07/04 13:03:53;;;;;;;1.95;0.20;;;21.40;99.20;;;;;;4833896;29;20073;-33
2022/07/04 13:06:19;;;;;;;1.63;0.15;;;21.40;97.80;;;;;;4844514;29;20049;-34
2022/07/04 13:08:45;;;;;;;1.73;0.22;;;21.30;96.50;;;;;;4848962;29;20049;-33